createdAt,value
2022-10-29T00:00:08.593Z,101037.13
2022-10-29T00:02:36.398Z,101036.53
2022-10-29T00:05:04.248Z,101034.16
2022-10-29T00:07:31.972Z,101021.28
2022-10-29T00:09:59.917Z,101028.38
2022-10-29T00:12:29.033Z,101023.19
2022-10-29T00:14:56.745Z,101029.88
2022-10-29T00:17:24.577Z,101030.13
2022-10-29T00:19:52.248Z,101026.69
2022-10-29T00:22:20.017Z,101027.31
2022-10-29T00:24:48.123Z,101016.22
2022-10-29T00:27:15.843Z,101016.97
2022-10-29T00:29:44.879Z,101012.50
2022-10-29T00:32:12.691Z,101010.69
2022-10-29T00:34:40.491Z,101019.06
2022-10-29T00:37:08.440Z,101013.91
2022-10-29T00:39:36.128Z,101004.28
2022-10-29T00:42:04.743Z,101012.56
2022-10-29T00:44:35.581Z,101005.56
2022-10-29T00:47:17.785Z,100996.09
2022-10-29T00:49:48.100Z,100997.22
2022-10-29T00:52:18.319Z,100982.75
2022-10-29T00:54:48.758Z,100991.94
2022-10-29T00:57:20.409Z,100994.78
2022-10-29T01:02:24.591Z,100999.94
2022-10-29T01:04:54.024Z,100994.88
2022-10-29T01:07:22.445Z,100988.38
2022-10-29T01:09:50.776Z,100993.81
2022-10-29T01:12:49.743Z,100989.38
2022-10-29T01:15:25.561Z,100987.03
2022-10-29T01:18:06.204Z,100992.56
2022-10-29T01:20:53.621Z,100993.28
2022-10-29T01:23:43.368Z,100989.34
2022-10-29T01:26:43.163Z,100977.84
2022-10-29T01:29:29.282Z,100992.78
2022-10-29T01:32:05.473Z,100972.91
2022-10-29T01:34:40.275Z,100985.78
2022-10-29T01:37:15.814Z,100976.09
2022-10-29T01:39:52.017Z,100983.31
2022-10-29T01:42:26.037Z,100979.66
2022-10-29T01:45:00.427Z,100982.50
2022-10-29T01:47:37.423Z,100983.50
2022-10-29T01:50:08.857Z,100976.84
2022-10-29T01:52:38.963Z,100971.19
2022-10-29T01:55:08.015Z,100968.75
2022-10-29T01:57:37.796Z,100959.16
2022-10-29T02:00:09.763Z,100958.78
2022-10-29T02:02:59.097Z,100952.50
2022-10-29T02:05:33.688Z,100955.03
2022-10-29T02:08:13.739Z,100947.75
2022-10-29T02:10:50.223Z,100947.13
2022-10-29T02:13:20.720Z,100951.06
2022-10-29T02:15:52.842Z,100944.28
2022-10-29T02:18:22.387Z,100942.38
2022-10-29T02:20:50.104Z,100953.50
2022-10-29T02:23:18.315Z,100953.59
2022-10-29T02:25:46.068Z,100947.56
2022-10-29T02:28:13.910Z,100936.97
2022-10-29T02:30:41.649Z,100944.00
2022-10-29T02:33:09.392Z,100940.53
2022-10-29T02:35:38.436Z,100943.09
2022-10-29T02:38:06.121Z,100938.75
2022-10-29T02:40:33.898Z,100932.25
2022-10-29T02:43:01.588Z,100932.47
2022-10-29T02:45:29.328Z,100931.69
2022-10-29T02:47:57.261Z,100916.03
2022-10-29T02:50:25.269Z,100924.06
2022-10-29T02:52:54.350Z,100922.94
2022-10-29T02:55:22.047Z,100917.84
2022-10-29T02:57:49.930Z,100925.91
2022-10-29T03:00:17.871Z,100917.59
2022-10-29T03:02:45.897Z,100920.50
2022-10-29T03:05:13.792Z,100914.38
2022-10-29T03:07:41.513Z,100915.03
2022-10-29T03:10:11.320Z,100923.13
2022-10-29T03:12:39.027Z,100911.59
2022-10-29T03:15:07.751Z,100913.34
2022-10-29T03:17:35.443Z,100901.50
2022-10-29T03:20:03.251Z,100906.34
2022-10-29T03:22:30.966Z,100904.75
2022-10-29T03:24:58.656Z,100908.44
2022-10-29T03:27:27.752Z,100911.66
2022-10-29T03:29:55.417Z,100900.13
2022-10-29T03:32:23.145Z,100899.88
2022-10-29T03:34:53.631Z,100890.72
2022-10-29T03:37:23.824Z,100885.81
2022-10-29T03:39:51.570Z,100881.91
2022-10-29T03:42:19.217Z,100889.25
2022-10-29T03:44:48.292Z,100900.06
2022-10-29T03:47:15.968Z,100890.88
2022-10-29T03:49:43.681Z,100881.16
2022-10-29T03:52:11.468Z,100885.94
2022-10-29T03:54:39.169Z,100882.53
2022-10-29T03:57:06.899Z,100891.09
2022-10-29T03:59:34.591Z,100893.53
2022-10-29T04:02:03.841Z,100893.69
2022-10-29T04:04:31.652Z,100885.59
2022-10-29T04:07:00.859Z,100876.38
2022-10-29T04:09:28.536Z,100877.13
2022-10-29T04:11:56.284Z,100877.63
2022-10-29T04:14:23.961Z,100863.69
2022-10-29T04:16:51.756Z,100865.44
2022-10-29T04:19:20.801Z,100873.66
2022-10-29T04:32:44.993Z,100873.81
2022-10-29T04:35:14.103Z,100871.59
2022-10-29T04:37:41.844Z,100875.03
2022-10-29T04:40:10.737Z,100869.00
2022-10-29T04:42:38.757Z,100892.94
2022-10-29T04:45:08.418Z,100894.06
2022-10-29T04:47:36.084Z,100889.00
2022-10-29T04:50:03.956Z,100895.16
2022-10-29T04:52:33.068Z,100887.94
2022-10-29T04:55:00.741Z,100883.50
2022-10-29T04:57:28.466Z,100882.75
2022-10-29T04:59:56.181Z,100882.72
2022-10-29T05:02:23.921Z,100878.94
2022-10-29T05:04:51.631Z,100880.06
2022-10-29T05:07:19.403Z,100875.50
2022-10-29T05:09:48.496Z,100876.88
2022-10-29T05:12:16.301Z,100887.41
2022-10-29T05:14:44.025Z,100877.34
2022-10-29T05:17:11.709Z,100871.31
2022-10-29T05:19:39.421Z,100867.66
2022-10-29T05:22:07.173Z,100856.47
2022-10-29T05:24:34.833Z,100849.97
2022-10-29T05:27:06.575Z,100841.50
2022-10-29T05:29:34.328Z,100851.03
2022-10-29T05:32:02.065Z,100837.75
2022-10-29T05:34:29.792Z,100837.63
2022-10-29T05:36:57.515Z,100842.19
2022-10-29T05:39:25.204Z,100846.47
2022-10-29T05:41:53.067Z,100847.19
2022-10-29T05:44:22.108Z,100850.44
2022-10-29T05:46:49.925Z,100849.56
2022-10-29T05:49:17.608Z,100849.25
2022-10-29T05:51:45.287Z,100852.41
2022-10-29T05:54:12.952Z,100849.78
2022-10-29T05:56:40.740Z,100842.91
2022-10-29T05:59:08.399Z,100831.41
2022-10-29T06:01:37.581Z,100828.69
2022-10-29T06:04:05.657Z,100826.28
2022-10-29T06:06:34.031Z,100829.06
2022-10-29T06:09:01.892Z,100820.81
2022-10-29T06:11:29.684Z,100829.38
2022-10-29T06:13:57.699Z,100832.97
2022-10-29T06:16:25.433Z,100829.69
2022-10-29T06:18:54.488Z,100827.34
2022-10-29T06:21:22.182Z,100823.50
2022-10-29T06:23:50.677Z,100819.75
2022-10-29T06:26:18.400Z,100814.03
2022-10-29T06:28:46.162Z,100823.44
2022-10-29T06:31:13.888Z,100811.34
2022-10-29T06:33:41.623Z,100810.44
2022-10-29T06:36:10.933Z,100807.22
2022-10-29T06:38:38.806Z,100808.00
2022-10-29T06:41:07.292Z,100808.22
2022-10-29T06:43:35.040Z,100795.72
2022-10-29T06:46:02.744Z,100798.75
2022-10-29T06:48:30.538Z,100806.16
2022-10-29T06:50:59.477Z,100802.56
2022-10-29T06:53:28.653Z,100800.72
2022-10-29T06:55:56.313Z,100810.75
2022-10-29T06:58:25.138Z,100809.16
2022-10-29T07:00:52.887Z,100807.47
2022-10-29T07:03:21.837Z,100806.03
2022-10-29T07:05:56.460Z,100805.56
2022-10-29T07:08:24.192Z,100799.38
2022-10-29T07:10:53.837Z,100798.84
2022-10-29T07:13:21.642Z,100803.63
2022-10-29T07:15:49.927Z,100803.84
2022-10-29T07:18:17.872Z,100802.88
2022-10-29T07:20:46.615Z,100800.91
2022-10-29T07:23:15.231Z,100810.00
2022-10-29T07:25:43.380Z,100803.63
2022-10-29T07:28:16.152Z,100796.25
2022-10-29T07:30:44.220Z,100792.84
2022-10-29T07:33:12.216Z,100788.22
2022-10-29T07:35:40.079Z,100797.94
2022-10-29T07:38:11.247Z,100802.47
2022-10-29T07:40:40.296Z,100797.47
2022-10-29T07:43:08.153Z,100797.22
2022-10-29T07:45:37.286Z,100796.47
2022-10-29T07:48:08.397Z,100790.88
2022-10-29T07:50:36.556Z,100788.69
2022-10-29T07:53:05.707Z,100780.47
2022-10-29T07:55:33.796Z,100776.13
2022-10-29T07:58:03.363Z,100792.53
2022-10-29T08:00:32.527Z,100802.13
2022-10-29T08:03:01.752Z,100821.53
2022-10-29T08:05:31.024Z,100827.69
2022-10-29T08:07:59.432Z,100822.09
2022-10-29T08:10:27.843Z,100824.41
2022-10-29T08:12:57.495Z,100821.69
2022-10-29T08:15:26.619Z,100829.09
2022-10-29T08:17:54.744Z,100816.28
2022-10-29T08:20:25.750Z,100812.00
2022-10-29T08:22:53.640Z,100802.41
2022-10-29T08:25:21.765Z,100806.16
2022-10-29T08:28:00.333Z,100819.56
2022-10-29T08:30:28.200Z,100815.41
2022-10-29T08:32:56.234Z,100814.53
2022-10-29T08:35:25.706Z,100806.81
2022-10-29T08:37:53.419Z,100811.38
2022-10-29T08:40:31.111Z,100810.53
2022-10-29T08:43:33.052Z,100817.59
2022-10-29T08:46:00.944Z,100837.09
2022-10-29T08:48:44.487Z,100833.31
2022-10-29T08:51:18.625Z,100821.31
2022-10-29T08:53:58.915Z,100821.53
2022-10-29T08:56:38.881Z,100822.56
2022-10-29T08:59:13.184Z,100830.44
2022-10-29T09:01:41.129Z,100828.25
2022-10-29T09:04:24.039Z,100829.09
2022-10-29T09:07:07.535Z,100837.00
2022-10-29T09:09:40.079Z,100826.88
2022-10-29T09:12:58.698Z,100821.19
2022-10-29T09:16:09.288Z,100820.59
2022-10-29T09:18:51.768Z,100824.31
2022-10-29T09:21:33.299Z,100833.78
2022-10-29T09:24:14.548Z,100830.38
2022-10-29T09:26:58.206Z,100840.53
2022-10-29T09:29:44.252Z,100825.97
2022-10-29T09:32:18.610Z,100829.66
2022-10-29T09:34:49.828Z,100833.94
2022-10-29T09:37:21.157Z,100832.09
2022-10-29T09:39:51.268Z,100834.53
2022-10-29T09:42:24.011Z,100827.69
2022-10-29T09:44:55.661Z,100820.97
2022-10-29T09:47:36.029Z,100830.13
2022-10-29T09:50:17.973Z,100831.81
2022-10-29T09:52:49.295Z,100826.09
2022-10-29T09:55:23.128Z,100837.81
2022-10-29T09:57:51.100Z,100835.81
2022-10-29T10:00:24.267Z,100833.25
2022-10-29T10:02:59.236Z,100831.69
2022-10-29T10:05:29.479Z,100828.44
2022-10-29T10:08:10.328Z,100819.56
2022-10-29T10:10:51.639Z,100822.13
2022-10-29T10:13:23.168Z,100828.13
2022-10-29T10:15:57.224Z,100825.41
2022-10-29T10:18:26.316Z,100831.00
2022-10-29T10:21:06.848Z,100845.00
2022-10-29T10:23:46.728Z,100844.41
2022-10-29T10:26:34.281Z,100830.53
2022-10-29T10:29:12.837Z,100835.38
2022-10-29T10:31:41.327Z,100834.28
2022-10-29T10:34:15.172Z,100835.34
2022-10-29T10:36:45.533Z,100831.59
2022-10-29T10:39:25.955Z,100831.59
2022-10-29T10:41:56.788Z,100849.78
2022-10-29T10:44:25.288Z,100864.06
2022-10-29T10:46:55.863Z,100860.91
2022-10-29T10:49:31.558Z,100851.44
2022-10-29T10:52:02.552Z,100852.63
2022-10-29T10:54:36.889Z,100855.66
2022-10-29T10:57:21.724Z,100864.38
2022-10-29T10:59:56.124Z,100858.91
2022-10-29T11:02:31.586Z,100850.03
2022-10-29T11:05:05.333Z,100856.34
2022-10-29T11:07:38.080Z,100857.44
2022-10-29T11:10:11.621Z,100867.66
2022-10-29T11:12:45.349Z,100870.19
2022-10-29T11:15:19.054Z,100869.44
2022-10-29T11:17:54.231Z,100881.16
2022-10-29T11:20:27.078Z,100877.91
2022-10-29T11:23:03.761Z,100891.97
2022-10-29T11:25:40.491Z,100875.91
2022-10-29T11:28:25.013Z,100889.13
2022-10-29T11:30:59.413Z,100871.25
2022-10-29T11:33:36.969Z,100877.50
2022-10-29T11:36:13.252Z,100877.06
2022-10-29T11:38:46.867Z,100864.50
2022-10-29T11:41:24.445Z,100870.28
2022-10-29T11:43:53.574Z,100860.63
2022-10-29T11:46:32.801Z,100861.22
2022-10-29T11:49:09.507Z,100868.78
2022-10-29T11:51:50.262Z,100862.44
2022-10-29T11:54:28.927Z,100864.44
2022-10-29T11:57:03.008Z,100875.75
2022-10-29T11:59:43.310Z,100874.84
2022-10-29T12:02:27.765Z,100884.88
2022-10-29T12:05:02.388Z,100885.78
2022-10-29T12:07:42.029Z,100873.75
2022-10-29T12:10:32.187Z,100872.19
2022-10-29T12:13:04.436Z,100863.66
2022-10-29T12:15:38.714Z,100864.31
2022-10-29T12:18:18.210Z,100889.22
2022-10-29T12:20:51.843Z,100885.69
2022-10-29T12:23:31.564Z,100888.72
2022-10-29T12:26:10.078Z,100882.41
2022-10-29T12:28:45.734Z,100880.13
2022-10-29T12:31:27.696Z,100872.94
2022-10-29T12:34:02.811Z,100869.91
2022-10-29T12:36:37.852Z,100882.69
2022-10-29T12:39:15.040Z,100882.16
2022-10-29T12:41:47.373Z,100884.59
2022-10-29T12:44:25.516Z,100883.38
2022-10-29T12:47:04.017Z,100885.13
2022-10-29T12:49:45.923Z,100889.53
2022-10-29T12:52:22.325Z,100891.22
2022-10-29T12:54:53.028Z,100881.88
2022-10-29T12:57:30.694Z,100883.00
2022-10-29T12:59:58.673Z,100882.56
2022-10-29T13:02:30.475Z,100888.44
2022-10-29T13:05:16.264Z,100886.97
2022-10-29T13:08:12.416Z,100883.84
2022-10-29T13:10:49.028Z,100884.50
2022-10-29T13:13:39.676Z,100865.41
2022-10-29T13:16:14.956Z,100865.72
2022-10-29T13:18:53.512Z,100874.00
2022-10-29T13:21:55.995Z,100868.06
2022-10-29T13:24:24.038Z,100868.06
2022-10-29T13:26:57.325Z,100864.19
2022-10-29T13:29:45.216Z,100870.47
2022-10-29T13:32:32.833Z,100881.22
2022-10-29T13:35:03.195Z,100885.69
2022-10-29T13:38:11.172Z,100890.44
2022-10-29T13:41:13.065Z,100892.63
2022-10-29T13:43:43.985Z,100892.44
2022-10-29T13:46:45.481Z,100892.88
2022-10-29T13:49:18.679Z,100891.75
2022-10-29T13:51:58.426Z,100898.81
2022-10-29T13:54:36.255Z,100902.94
2022-10-29T13:57:09.588Z,100897.66
2022-10-29T13:59:42.926Z,100902.94
2022-10-29T14:02:22.858Z,100908.44
2022-10-29T14:04:55.256Z,100899.88
2022-10-29T14:07:34.780Z,100917.94
2022-10-29T14:10:08.975Z,100922.53
2022-10-29T14:12:39.413Z,100913.78
2022-10-29T14:15:12.735Z,100913.69
2022-10-29T14:17:40.800Z,100919.69
2022-10-29T14:20:24.012Z,100923.63
2022-10-29T14:22:52.979Z,100928.25
2022-10-29T14:25:30.880Z,100923.78
2022-10-29T14:28:26.206Z,100924.41
2022-10-29T14:31:02.406Z,100931.47
2022-10-29T14:33:31.551Z,100942.06
2022-10-29T14:36:08.850Z,100943.31
2022-10-29T14:38:43.933Z,100947.91
2022-10-29T14:41:12.499Z,100936.88
2022-10-29T14:43:41.135Z,100938.13
2022-10-29T14:46:23.669Z,100930.13
2022-10-29T14:48:59.648Z,100932.22
2022-10-29T14:51:28.488Z,100934.84
2022-10-29T14:54:01.193Z,100935.56
2022-10-29T14:56:34.825Z,100939.59
2022-10-29T14:59:09.048Z,100928.25
2022-10-29T15:01:46.377Z,100932.94
2022-10-29T15:04:20.099Z,100933.78
2022-10-29T15:06:47.888Z,100956.41
2022-10-29T15:09:26.824Z,100946.09
2022-10-29T15:12:03.023Z,100961.22
2022-10-29T15:14:39.047Z,100959.44
2022-10-29T15:17:12.821Z,100962.03
2022-10-29T15:19:45.282Z,100963.94
2022-10-29T15:22:20.038Z,100962.59
2022-10-29T15:24:53.060Z,100955.78
2022-10-29T15:27:21.915Z,100949.75
2022-10-29T15:29:50.568Z,100955.84
2022-10-29T15:32:19.103Z,100944.38
2022-10-29T15:34:50.418Z,100929.97
2022-10-29T15:37:26.908Z,100945.59
2022-10-29T15:40:05.893Z,100954.59
2022-10-29T15:42:35.787Z,100960.34
2022-10-29T15:45:18.309Z,100977.03
2022-10-29T15:47:48.283Z,100989.31
2022-10-29T15:50:18.475Z,100982.75
2022-10-29T15:52:49.618Z,100989.91
2022-10-29T15:55:26.513Z,100987.44
2022-10-29T15:57:57.271Z,100984.44
2022-10-29T16:00:25.314Z,100990.38
2022-10-29T16:02:53.133Z,100992.00
2022-10-29T16:05:20.841Z,100991.47
2022-10-29T16:07:49.270Z,100988.28
2022-10-29T16:10:21.124Z,100996.59
2022-10-29T16:12:50.536Z,100990.19
2022-10-29T16:15:20.045Z,100991.63
2022-10-29T16:17:48.833Z,100987.09
2022-10-29T16:20:18.682Z,100991.88
2022-10-29T16:22:47.711Z,101004.47
2022-10-29T16:25:22.723Z,100993.72
2022-10-29T16:27:50.989Z,100991.00
2022-10-29T16:30:19.552Z,100963.31
2022-10-29T16:32:49.804Z,100957.06
2022-10-29T16:35:21.296Z,100968.38
2022-10-29T16:37:49.798Z,100964.03
2022-10-29T16:40:19.818Z,100962.44
2022-10-29T16:42:48.311Z,100964.28
2022-10-29T16:45:18.032Z,100971.41
2022-10-29T16:47:45.815Z,100965.00
2022-10-29T16:50:21.467Z,100975.41
2022-10-29T16:52:49.601Z,100989.53
2022-10-29T16:55:18.674Z,100995.75
2022-10-29T16:57:46.412Z,100999.66
2022-10-29T17:00:15.241Z,101001.63
2022-10-29T17:02:44.553Z,101000.50
2022-10-29T17:05:12.721Z,101009.28
2022-10-29T17:07:40.494Z,101007.28
2022-10-29T17:10:09.555Z,101007.50
2022-10-29T17:12:39.553Z,101000.38
2022-10-29T17:15:08.280Z,101008.41
2022-10-29T17:17:36.047Z,101015.09
2022-10-29T17:20:03.736Z,101016.06
2022-10-29T17:22:31.880Z,101011.84
2022-10-29T17:24:59.715Z,101015.41
2022-10-29T17:27:27.468Z,101018.22
2022-10-29T17:29:56.554Z,101020.53
2022-10-29T17:32:24.721Z,101023.97
2022-10-29T17:34:52.359Z,101020.63
2022-10-29T17:37:20.042Z,101035.03
2022-10-29T17:39:47.716Z,101043.03
2022-10-29T17:42:15.383Z,101054.97
2022-10-29T17:44:43.143Z,101050.06
2022-10-29T17:47:12.259Z,101051.41
2022-10-29T17:49:40.216Z,101062.38
2022-10-29T17:52:07.933Z,101062.38
2022-10-29T17:54:35.606Z,101069.47
2022-10-29T17:57:03.591Z,101068.88
2022-10-29T17:59:31.346Z,101069.00
2022-10-29T18:01:59.315Z,101069.13
2022-10-29T18:04:28.529Z,101070.56
2022-10-29T18:06:57.018Z,101073.56
2022-10-29T18:09:24.707Z,101073.31
2022-10-29T18:11:52.448Z,101089.22
2022-10-29T18:14:20.167Z,101090.78
2022-10-29T18:16:47.845Z,101091.53
2022-10-29T18:19:15.564Z,101102.97
2022-10-29T18:21:44.694Z,101100.34
2022-10-29T18:24:12.421Z,101097.66
2022-10-29T18:26:40.167Z,101094.84
2022-10-29T18:29:09.807Z,101092.88
2022-10-29T18:31:38.170Z,101089.44
2022-10-29T18:34:07.773Z,101099.50
2022-10-29T18:36:36.431Z,101092.75
2022-10-29T18:39:06.559Z,101085.34
2022-10-29T18:41:34.466Z,101092.88
2022-10-29T18:44:02.713Z,101087.81
2022-10-29T18:46:30.400Z,101088.31
2022-10-29T18:48:58.096Z,101089.91
2022-10-29T18:51:28.709Z,101097.81
2022-10-29T18:53:58.805Z,101100.50
2022-10-29T18:56:29.459Z,101107.63
2022-10-29T18:58:58.225Z,101107.66
2022-10-29T19:01:28.183Z,101115.50
2022-10-29T19:03:57.537Z,101113.03
2022-10-29T19:06:27.338Z,101114.66
2022-10-29T19:08:55.397Z,101116.97
2022-10-29T19:11:25.440Z,101126.84
2022-10-29T19:13:57.099Z,101128.56
2022-10-29T19:16:26.006Z,101132.25
2022-10-29T19:18:56.440Z,101143.47
2022-10-29T19:21:24.411Z,101143.72
2022-10-29T19:23:55.868Z,101136.66
2022-10-29T19:26:24.306Z,101134.31
2022-10-29T19:28:52.083Z,101123.50
2022-10-29T19:31:23.171Z,101128.91
2022-10-29T19:33:52.490Z,101135.56
2022-10-29T19:36:20.982Z,101139.38
2022-10-29T19:38:49.103Z,101139.00
2022-10-29T19:41:18.105Z,101132.47
2022-10-29T19:43:46.104Z,101140.81
2022-10-29T19:46:16.221Z,101120.44
2022-10-29T19:48:49.600Z,101107.91
2022-10-29T19:51:17.383Z,101105.81
2022-10-29T19:53:45.491Z,101109.50
2022-10-29T19:56:15.283Z,101111.81
2022-10-29T19:58:43.250Z,101106.19
2022-10-29T20:01:13.320Z,101115.28
2022-10-29T20:03:41.258Z,101126.72
2022-10-29T20:06:10.395Z,101115.03
2022-10-29T20:08:38.932Z,101106.91
2022-10-29T20:11:07.523Z,101108.03
2022-10-29T20:13:35.268Z,101105.06
2022-10-29T20:16:09.053Z,101112.56
2022-10-29T20:18:38.089Z,101094.88
2022-10-29T20:21:06.857Z,101098.69
2022-10-29T20:23:36.075Z,101081.47
2022-10-29T20:26:04.029Z,101086.75
2022-10-29T20:28:31.788Z,101087.84
2022-10-29T20:31:13.187Z,101067.94
2022-10-29T20:33:41.000Z,101070.28
2022-10-29T20:36:09.345Z,101084.41
2022-10-29T20:38:38.426Z,101089.09
2022-10-29T20:41:06.158Z,101096.59
2022-10-29T20:43:34.311Z,101102.38
2022-10-29T20:46:02.691Z,101100.03
2022-10-29T20:48:31.174Z,101117.97
2022-10-29T20:50:58.825Z,101119.81
2022-10-29T20:53:26.561Z,101122.16
2022-10-29T20:55:55.727Z,101124.63
2022-10-29T20:58:23.831Z,101117.38
2022-10-29T21:00:51.522Z,101125.59
2022-10-29T21:03:19.555Z,101119.59
2022-10-29T21:05:47.218Z,101123.75
2022-10-29T21:08:15.023Z,101112.72
2022-10-29T21:10:42.740Z,101109.38
2022-10-29T21:13:11.756Z,101130.53
2022-10-29T21:15:39.500Z,101146.25
2022-10-29T21:18:07.231Z,101152.53
2022-10-29T21:20:34.891Z,101140.09
2022-10-29T21:23:02.605Z,101136.91
2022-10-29T21:25:30.301Z,101141.59
2022-10-29T21:27:58.220Z,101138.28
2022-10-29T21:30:27.518Z,101132.09
2022-10-29T21:32:55.271Z,101121.28
2022-10-29T21:35:23.163Z,101119.44
2022-10-29T21:37:50.820Z,101103.94
2022-10-29T21:40:18.557Z,101112.28
2022-10-29T21:42:46.199Z,101125.00
2022-10-29T21:45:13.907Z,101116.38
2022-10-29T21:47:42.942Z,101118.41
2022-10-29T21:50:11.011Z,101105.66
2022-10-29T21:52:39.104Z,101107.28
2022-10-29T21:55:07.482Z,101112.06
2022-10-29T21:57:35.388Z,101114.66
2022-10-29T22:00:03.126Z,101124.59
2022-10-29T22:02:32.798Z,101122.25
2022-10-29T22:05:01.933Z,101139.22
2022-10-29T22:07:29.673Z,101135.78
2022-10-29T22:09:57.502Z,101131.59
2022-10-29T22:12:25.261Z,101128.81
2022-10-29T22:14:53.105Z,101137.50
2022-10-29T22:17:20.964Z,101130.78
2022-10-29T22:19:48.752Z,101125.16
2022-10-29T22:22:17.807Z,101133.13
2022-10-29T22:24:45.516Z,101139.78
2022-10-29T22:27:13.302Z,101140.75
2022-10-29T22:29:41.061Z,101148.88
2022-10-29T22:32:09.028Z,101155.38
2022-10-29T22:34:36.700Z,101155.38
2022-10-29T22:37:04.453Z,101148.88
2022-10-29T22:39:33.524Z,101149.97
2022-10-29T22:42:01.599Z,101142.22
2022-10-29T22:44:29.273Z,101144.25
2022-10-29T22:46:56.961Z,101152.84
2022-10-29T22:49:24.627Z,101157.50
2022-10-29T22:51:55.884Z,101160.09
2022-10-29T22:54:26.564Z,101158.06
2022-10-29T22:56:55.601Z,101153.19
2022-10-29T22:59:23.369Z,101157.97
2022-10-29T23:01:51.214Z,101155.53
2022-10-29T23:04:18.946Z,101152.03
2022-10-29T23:06:47.697Z,101138.31
2022-10-29T23:09:15.380Z,101143.63
2022-10-29T23:11:43.060Z,101138.53
2022-10-29T23:14:13.110Z,101136.13
2022-10-29T23:16:40.808Z,101138.94
2022-10-29T23:19:08.649Z,101130.00
2022-10-29T23:21:37.023Z,101126.66
2022-10-29T23:24:05.175Z,101127.44
2022-10-29T23:26:32.831Z,101123.53
2022-10-29T23:29:00.609Z,101121.25
2022-10-29T23:31:30.660Z,101113.25
2022-10-29T23:33:59.013Z,101102.94
2022-10-29T23:36:28.114Z,101101.06
2022-10-29T23:38:56.471Z,101099.38
2022-10-29T23:41:24.473Z,101100.22
2022-10-29T23:43:52.218Z,101103.13
2022-10-29T23:46:20.020Z,101088.16
2022-10-29T23:48:49.149Z,101081.91
2022-10-29T23:51:17.171Z,101083.34
2022-10-29T23:53:44.827Z,101088.41
2022-10-29T23:56:12.531Z,101099.69
2022-10-29T23:58:40.307Z,101097.00
